createdAt,value
2016-07-14T00:00:23.284Z,951.19
2016-07-14T00:01:23.271Z,951.24
2016-07-14T00:02:23.273Z,951.14
2016-07-14T00:03:23.263Z,951.22
2016-07-14T00:04:23.257Z,951.21
2016-07-14T00:05:23.356Z,951.25
2016-07-14T00:06:23.246Z,951.3
2016-07-14T00:07:23.343Z,951.31
2016-07-14T00:08:23.241Z,951.32
2016-07-14T00:09:23.241Z,951.36
2016-07-14T00:10:23.234Z,951.33
2016-07-14T00:11:23.225Z,951.28
2016-07-14T00:12:23.221Z,951.31
2016-07-14T00:13:23.215Z,951.22
2016-07-14T00:14:23.217Z,951.16
2016-07-14T00:15:23.203Z,951.09
2016-07-14T00:16:23.198Z,951.03
2016-07-14T00:17:23.195Z,950.95
2016-07-14T00:18:23.198Z,950.9
2016-07-14T00:19:23.310Z,950.89
2016-07-14T00:20:23.191Z,950.91
2016-07-14T00:21:23.195Z,950.97
2016-07-14T00:22:23.191Z,951
2016-07-14T00:24:23.160Z,951.15
2016-07-14T00:25:23.155Z,951.17
2016-07-14T00:26:23.162Z,951.24
2016-07-14T00:27:23.398Z,951.25
2016-07-14T00:28:23.141Z,951.22
2016-07-14T00:29:23.232Z,951.19
2016-07-14T00:30:23.130Z,951.2
2016-07-14T00:31:23.127Z,951.2
2016-07-14T00:32:23.218Z,951.17
2016-07-14T00:33:23.119Z,951.15
2016-07-14T00:34:23.117Z,951.2
2016-07-14T00:35:23.121Z,951.18
2016-07-14T00:36:23.115Z,951.17
2016-07-14T00:37:23.225Z,951.18
2016-07-14T00:38:23.086Z,951.18
2016-07-14T00:39:23.084Z,951.21
2016-07-14T00:40:23.183Z,951.24
2016-07-14T00:41:23.200Z,951.26
2016-07-14T00:42:23.118Z,951.25
2016-07-14T00:43:23.172Z,951.26
2016-07-14T00:44:23.055Z,951.27
2016-07-14T00:45:23.071Z,951.23
2016-07-14T00:46:23.071Z,951.2
2016-07-14T00:47:23.157Z,951.18
2016-07-14T00:48:23.039Z,951.16
2016-07-14T00:49:23.144Z,951.09
2016-07-14T00:50:23.025Z,951.12
2016-07-14T00:51:23.018Z,951.04
2016-07-14T00:52:23.136Z,951.06
2016-07-14T00:53:23.013Z,951.02
2016-07-14T00:54:23.005Z,951.02
2016-07-14T00:55:22.998Z,951
2016-07-14T00:56:22.993Z,950.99
2016-07-14T00:57:22.990Z,950.94
2016-07-14T00:58:22.983Z,950.94
2016-07-14T00:59:22.976Z,950.9
2016-07-14T01:00:23.094Z,950.85
2016-07-14T01:01:22.969Z,950.85
2016-07-14T01:02:22.964Z,950.85
2016-07-14T01:03:22.956Z,950.84
2016-07-14T01:04:22.952Z,950.92
2016-07-14T01:05:22.945Z,950.91
2016-07-14T01:06:22.940Z,951
2016-07-14T01:07:22.940Z,951.04
2016-07-14T01:08:22.929Z,951.09
2016-07-14T01:09:22.926Z,951.12
2016-07-14T01:10:22.916Z,951.12
2016-07-14T01:11:22.912Z,951.09
2016-07-14T01:12:22.906Z,951.05
2016-07-14T01:13:23.012Z,951.03
2016-07-14T01:14:22.990Z,951.03
2016-07-14T01:15:22.891Z,950.99
2016-07-14T01:16:22.886Z,951.01
2016-07-14T01:17:22.978Z,951
2016-07-14T01:18:22.874Z,950.99
2016-07-14T01:19:22.866Z,951.01
2016-07-14T01:20:22.863Z,951
2016-07-14T01:21:22.857Z,951.02
2016-07-14T01:22:22.857Z,951.09
2016-07-14T01:23:22.846Z,951.11
2016-07-14T01:24:22.841Z,951.12
2016-07-14T01:25:22.842Z,951.18
2016-07-14T01:26:22.829Z,951.13
2016-07-14T01:27:22.824Z,951.14
2016-07-14T01:28:22.821Z,951.15
2016-07-14T01:29:22.817Z,951.11
2016-07-14T01:30:22.904Z,951.1
2016-07-14T01:31:22.903Z,951.06
2016-07-14T01:32:22.915Z,951.03
2016-07-14T01:33:22.792Z,951.01
2016-07-14T01:34:22.782Z,951.05
2016-07-14T01:35:22.870Z,950.97
2016-07-14T01:36:22.771Z,950.99
2016-07-14T01:37:22.877Z,951
2016-07-14T01:38:22.856Z,950.96
2016-07-14T01:39:22.756Z,950.95
2016-07-14T01:40:22.869Z,950.96
2016-07-14T01:41:22.753Z,950.94
2016-07-14T01:42:22.741Z,950.98
2016-07-14T01:43:22.734Z,950.97
2016-07-14T01:44:22.728Z,950.96
2016-07-14T01:45:22.722Z,950.92
2016-07-14T01:46:22.716Z,950.91
2016-07-14T01:47:22.710Z,950.87
2016-07-14T01:48:22.711Z,950.87
2016-07-14T01:49:22.704Z,950.89
2016-07-14T01:50:22.694Z,950.91
2016-07-14T01:51:22.688Z,950.9
2016-07-14T01:52:22.787Z,950.92
2016-07-14T01:53:22.679Z,951.01
2016-07-14T01:54:22.774Z,951.06
2016-07-14T01:55:22.667Z,951.05
2016-07-14T01:56:22.674Z,951.01
2016-07-14T01:57:22.661Z,950.98
2016-07-14T01:58:22.649Z,950.98
2016-07-14T01:59:22.642Z,950.94
2016-07-14T02:00:22.644Z,950.88
2016-07-14T02:01:22.632Z,950.85
2016-07-14T02:02:22.634Z,950.88
2016-07-14T02:03:22.733Z,950.9
2016-07-14T02:04:22.618Z,950.86
2016-07-14T02:05:22.609Z,950.89
2016-07-14T02:06:22.603Z,950.84
2016-07-14T02:07:22.598Z,950.85
2016-07-14T02:08:22.592Z,950.82
2016-07-14T02:09:22.585Z,950.84
2016-07-14T02:10:22.584Z,950.81
2016-07-14T02:11:22.578Z,950.81
2016-07-14T02:12:22.688Z,950.8
2016-07-14T02:13:22.564Z,950.84
2016-07-14T02:14:22.558Z,950.85
2016-07-14T02:15:22.553Z,950.84
2016-07-14T02:16:22.547Z,950.85
2016-07-14T02:17:22.542Z,950.8
2016-07-14T02:18:22.535Z,950.81
2016-07-14T02:19:22.533Z,950.77
2016-07-14T02:20:22.532Z,950.81
2016-07-14T02:21:22.545Z,950.86
2016-07-14T02:22:22.513Z,950.87
2016-07-14T02:23:22.507Z,950.82
2016-07-14T02:24:22.503Z,950.8
2016-07-14T02:25:22.596Z,950.77
2016-07-14T02:26:22.496Z,950.82
2016-07-14T02:27:22.489Z,950.77
2016-07-14T02:28:22.486Z,950.77
2016-07-14T02:29:22.494Z,950.8
2016-07-14T02:30:22.469Z,950.81
2016-07-14T02:31:22.464Z,950.84
2016-07-14T02:32:22.458Z,950.84
2016-07-14T02:33:22.449Z,950.83
2016-07-14T02:34:22.448Z,950.89
2016-07-14T02:35:22.440Z,950.88
2016-07-14T02:36:22.497Z,950.9
2016-07-14T02:37:22.441Z,950.92
2016-07-14T02:38:22.421Z,950.87
2016-07-14T02:39:22.423Z,950.81
2016-07-14T02:40:22.409Z,950.81
2016-07-14T02:41:22.406Z,950.79
2016-07-14T02:42:22.525Z,950.79
2016-07-14T02:43:22.391Z,950.86
2016-07-14T02:44:22.392Z,950.86
2016-07-14T02:45:22.385Z,950.84
2016-07-14T02:46:22.466Z,950.83
2016-07-14T02:47:22.441Z,950.82
2016-07-14T02:48:22.363Z,950.79
2016-07-14T02:49:22.434Z,950.78
2016-07-14T02:50:22.439Z,950.77
2016-07-14T02:51:22.350Z,950.77
2016-07-14T02:52:22.449Z,950.74
2016-07-14T02:53:22.347Z,950.77
2016-07-14T02:54:22.332Z,950.7
2016-07-14T02:55:22.397Z,950.75
2016-07-14T02:56:22.398Z,950.74
2016-07-14T02:57:22.384Z,950.72
2016-07-14T02:58:22.403Z,950.77
2016-07-14T02:59:22.403Z,950.84
2016-07-14T03:00:22.298Z,950.85
2016-07-14T03:01:22.390Z,950.88
2016-07-14T03:02:22.284Z,950.89
2016-07-14T03:03:22.380Z,950.82
2016-07-14T03:04:22.368Z,950.8
2016-07-14T03:05:22.266Z,950.76
2016-07-14T03:06:22.265Z,950.79
2016-07-14T03:07:22.324Z,950.84
2016-07-14T03:08:22.325Z,950.87
2016-07-14T03:09:22.313Z,950.84
2016-07-14T03:10:22.430Z,950.85
2016-07-14T03:11:22.238Z,950.86
2016-07-14T03:12:22.328Z,950.88
2016-07-14T03:13:22.319Z,950.89
2016-07-14T03:14:22.289Z,950.96
2016-07-14T03:15:22.210Z,951.01
2016-07-14T03:16:22.405Z,951.09
2016-07-14T03:17:22.198Z,951.19
2016-07-14T03:18:22.266Z,951.18
2016-07-14T03:19:22.187Z,951.18
2016-07-14T03:20:22.282Z,951.18
2016-07-14T03:21:22.247Z,951.19
2016-07-14T03:22:22.244Z,951.16
2016-07-14T03:23:22.260Z,951.2
2016-07-14T03:24:22.261Z,951.25
2016-07-14T03:25:22.217Z,951.22
2016-07-14T03:26:22.257Z,951.29
2016-07-14T03:27:22.209Z,951.26
2016-07-14T03:28:22.234Z,951.29
2016-07-14T03:29:22.195Z,951.28
2016-07-14T03:30:22.222Z,951.23
2016-07-14T03:31:22.122Z,951.21
2016-07-14T03:32:22.125Z,951.22
2016-07-14T03:33:22.199Z,951.15
2016-07-14T03:34:22.210Z,951.15
2016-07-14T03:35:22.095Z,951.2
2016-07-14T03:36:22.276Z,951.2
2016-07-14T03:37:22.078Z,951.2
2016-07-14T03:38:22.071Z,951.19
2016-07-14T03:39:22.065Z,951.16
2016-07-14T03:40:22.062Z,951.21
2016-07-14T03:41:22.053Z,951.19
2016-07-14T03:42:22.045Z,951.2
2016-07-14T03:43:22.041Z,951.21
2016-07-14T03:44:22.039Z,951.22
2016-07-14T03:45:22.131Z,951.19
2016-07-14T03:46:22.236Z,951.2
2016-07-14T03:47:22.122Z,951.24
2016-07-14T03:48:22.085Z,951.21
2016-07-14T03:49:22.108Z,951.24
2016-07-14T03:50:22.069Z,951.19
2016-07-14T03:51:21.992Z,951.21
2016-07-14T03:52:22.081Z,951.19
2016-07-14T03:53:21.987Z,951.22
2016-07-14T03:54:22.072Z,951.19
2016-07-14T03:55:22.159Z,951.18
2016-07-14T03:56:22.018Z,951.2
2016-07-14T03:57:22.061Z,951.24
2016-07-14T03:58:21.947Z,951.2
2016-07-14T03:59:21.944Z,951.27
2016-07-14T04:00:21.933Z,951.32
2016-07-14T04:01:21.927Z,951.33
2016-07-14T04:02:21.921Z,951.29
2016-07-14T04:03:22.036Z,951.31
2016-07-14T04:04:22.010Z,951.31
2016-07-14T04:05:21.905Z,951.26
2016-07-14T04:06:21.901Z,951.23
2016-07-14T04:07:21.989Z,951.28
2016-07-14T04:08:21.886Z,951.32
2016-07-14T04:09:21.976Z,951.29
2016-07-14T04:10:21.968Z,951.34
2016-07-14T04:11:21.866Z,951.31
2016-07-14T04:12:21.954Z,951.32
2016-07-14T04:13:21.953Z,951.35
2016-07-14T04:14:21.913Z,951.32
2016-07-14T04:15:21.843Z,951.32
2016-07-14T04:16:21.939Z,951.31
2016-07-14T04:17:21.829Z,951.32
2016-07-14T04:18:21.820Z,951.33
2016-07-14T04:19:21.887Z,951.26
2016-07-14T04:20:21.805Z,951.32
2016-07-14T04:21:21.800Z,951.29
2016-07-14T04:22:21.791Z,951.28
2016-07-14T04:23:21.791Z,951.3
2016-07-14T04:24:21.779Z,951.32
2016-07-14T04:25:21.772Z,951.27
2016-07-14T04:26:21.764Z,951.27
2016-07-14T04:27:21.862Z,951.25
2016-07-14T04:28:21.753Z,951.28
2016-07-14T04:29:21.751Z,951.29
2016-07-14T04:30:21.742Z,951.26
2016-07-14T04:31:21.735Z,951.28
2016-07-14T04:32:21.731Z,951.24
2016-07-14T04:33:21.826Z,951.26
2016-07-14T04:34:21.712Z,951.28
2016-07-14T04:35:21.710Z,951.29
2016-07-14T04:36:21.769Z,951.27
2016-07-14T04:37:21.793Z,951.24
2016-07-14T04:38:21.788Z,951.24
2016-07-14T04:39:21.779Z,951.21
2016-07-14T04:40:21.815Z,951.21
2016-07-14T04:41:21.764Z,951.19
2016-07-14T04:42:21.767Z,951.22
2016-07-14T04:43:21.759Z,951.25
2016-07-14T04:44:21.747Z,951.28
2016-07-14T04:45:21.648Z,951.24
2016-07-14T04:46:21.640Z,951.27
2016-07-14T04:47:21.631Z,951.26
2016-07-14T04:48:21.694Z,951.27
2016-07-14T04:49:21.719Z,951.3
2016-07-14T04:50:21.611Z,951.33
2016-07-14T04:51:21.606Z,951.32
2016-07-14T04:52:21.700Z,951.2
2016-07-14T04:53:21.699Z,951.27
2016-07-14T04:54:21.586Z,951.28
2016-07-14T04:55:21.575Z,951.28
2016-07-14T04:56:21.574Z,951.26
2016-07-14T04:57:21.564Z,951.3
2016-07-14T04:58:21.557Z,951.28
2016-07-14T04:59:21.551Z,951.29
2016-07-14T05:00:21.622Z,951.26
2016-07-14T05:01:21.642Z,951.3
2016-07-14T05:02:21.631Z,951.32
2016-07-14T05:03:21.525Z,951.24
2016-07-14T05:04:21.518Z,951.28
2016-07-14T05:05:21.613Z,951.27
2016-07-14T05:06:21.575Z,951.31
2016-07-14T05:07:21.606Z,951.28
2016-07-14T05:08:21.594Z,951.32
2016-07-14T05:09:21.579Z,951.29
2016-07-14T05:10:21.479Z,951.26
2016-07-14T05:11:21.475Z,951.35
2016-07-14T05:12:21.567Z,951.24
2016-07-14T05:13:21.524Z,951.28
2016-07-14T05:14:21.644Z,951.29
2016-07-14T05:15:21.452Z,951.28
2016-07-14T05:16:21.543Z,951.3
2016-07-14T05:17:21.430Z,951.27
2016-07-14T05:18:21.432Z,951.24
2016-07-14T05:19:21.520Z,951.21
2016-07-14T05:20:21.485Z,951.27
2016-07-14T05:21:21.407Z,951.21
2016-07-14T05:22:21.496Z,951.19
2016-07-14T05:23:21.392Z,951.21
2016-07-14T05:24:21.386Z,951.17
2016-07-14T05:25:21.378Z,951.2
2016-07-14T05:26:21.371Z,951.19
2016-07-14T05:27:21.463Z,951.2
2016-07-14T05:28:21.474Z,951.12
2016-07-14T05:29:21.453Z,951.17
2016-07-14T05:30:21.449Z,951.15
2016-07-14T05:31:21.438Z,951.13
2016-07-14T05:32:21.439Z,951.17
2016-07-14T05:33:21.430Z,951.14
2016-07-14T05:34:21.579Z,951.13
2016-07-14T05:35:21.413Z,951.11
2016-07-14T05:36:21.407Z,951.11
2016-07-14T05:37:21.402Z,951.09
2016-07-14T05:38:21.402Z,951.07
2016-07-14T05:39:21.286Z,951.14
2016-07-14T05:40:21.382Z,951.16
2016-07-14T05:41:21.350Z,951.13
2016-07-14T05:42:21.370Z,951.14
2016-07-14T05:43:21.356Z,951.18
2016-07-14T05:44:21.328Z,951.12
2016-07-14T05:45:21.345Z,951.08
2016-07-14T05:46:21.344Z,951.09
2016-07-14T05:47:21.337Z,951.13
2016-07-14T05:48:21.422Z,951.15
2016-07-14T05:49:21.224Z,951.18
2016-07-14T05:50:21.213Z,951.17
2016-07-14T05:51:21.314Z,951.17
2016-07-14T05:52:21.311Z,951.16
2016-07-14T05:53:21.297Z,951.18
2016-07-14T05:54:21.291Z,951.19
2016-07-14T05:55:21.184Z,951.2
2016-07-14T05:56:21.183Z,951.21
2016-07-14T05:57:21.173Z,951.2
2016-07-14T05:58:21.162Z,951.18
2016-07-14T05:59:21.222Z,951.2
2016-07-14T06:00:21.150Z,951.15
2016-07-14T06:01:21.244Z,951.17
2016-07-14T06:02:21.136Z,951.19
2016-07-14T06:03:21.230Z,951.15
2016-07-14T06:04:21.125Z,951.14
2016-07-14T06:05:21.116Z,951.15
2016-07-14T06:06:21.176Z,951.15
2016-07-14T06:07:21.205Z,951.18
2016-07-14T06:08:21.215Z,951.16
2016-07-14T06:09:21.091Z,951.15
2016-07-14T06:10:21.181Z,951.15
2016-07-14T06:11:21.083Z,951.16
2016-07-14T06:12:21.171Z,951.17
2016-07-14T06:13:21.063Z,951.17
2016-07-14T06:14:21.060Z,951.19
2016-07-14T06:15:21.054Z,951.19
2016-07-14T06:16:21.145Z,951.16
2016-07-14T06:17:21.039Z,951.16
2016-07-14T06:18:21.229Z,951.19
2016-07-14T06:19:21.092Z,951.2
2016-07-14T06:20:21.113Z,951.21
2016-07-14T06:21:21.012Z,951.2
2016-07-14T06:22:21.103Z,951.23
2016-07-14T06:23:20.996Z,951.18
2016-07-14T06:24:21.000Z,951.2
2016-07-14T06:25:20.984Z,951.16
2016-07-14T06:26:20.980Z,951.16
2016-07-14T06:27:21.066Z,951.2
2016-07-14T06:28:21.035Z,951.15
2016-07-14T06:29:20.957Z,951.15
2016-07-14T06:30:21.023Z,951.19
2016-07-14T06:31:20.949Z,951.15
2016-07-14T06:32:20.939Z,951.15
2016-07-14T06:33:20.932Z,951.19
2016-07-14T06:34:20.941Z,951.14
2016-07-14T06:35:20.921Z,951.15
2016-07-14T06:36:21.020Z,951.18
2016-07-14T06:37:21.008Z,951.14
2016-07-14T06:38:20.965Z,951.14
2016-07-14T06:39:20.891Z,951.13
2016-07-14T06:40:20.955Z,951.13
2016-07-14T06:41:20.881Z,951.13
2016-07-14T06:42:20.970Z,951.15
2016-07-14T06:43:20.923Z,951.14
2016-07-14T06:44:20.928Z,951.15
2016-07-14T06:45:20.855Z,951.13
2016-07-14T06:46:20.847Z,951.15
2016-07-14T06:47:20.945Z,951.17
2016-07-14T06:48:20.940Z,951.12
2016-07-14T06:49:20.925Z,951.16
2016-07-14T06:50:20.897Z,951.16
2016-07-14T06:51:20.820Z,951.15
2016-07-14T06:52:20.813Z,951.15
2016-07-14T06:53:20.900Z,951.16
2016-07-14T06:54:20.902Z,951.15
2016-07-14T06:55:20.897Z,951.12
2016-07-14T06:56:20.890Z,951.15
2016-07-14T06:57:20.782Z,951.16
2016-07-14T06:58:20.877Z,951.17
2016-07-14T06:59:20.769Z,951.13
2016-07-14T07:00:20.760Z,951.11
2016-07-14T07:01:20.822Z,951.15
2016-07-14T07:02:20.752Z,951.17
2016-07-14T07:03:20.812Z,951.13
2016-07-14T07:04:20.840Z,951.14
2016-07-14T07:05:20.830Z,951.18
2016-07-14T07:06:20.829Z,951.19
2016-07-14T07:07:20.790Z,951.16
2016-07-14T07:08:20.932Z,951.19
2016-07-14T07:09:20.780Z,951.18
2016-07-14T07:10:20.803Z,951.15
2016-07-14T07:11:20.794Z,951.17
2016-07-14T07:12:20.691Z,951.19
2016-07-14T07:13:20.687Z,951.14
2016-07-14T07:14:20.676Z,951.14
2016-07-14T07:15:20.768Z,951.09
2016-07-14T07:16:20.770Z,951.12
2016-07-14T07:17:20.655Z,951.14
2016-07-14T07:18:20.651Z,951.04
2016-07-14T07:19:20.715Z,951.1
2016-07-14T07:20:20.703Z,951.05
2016-07-14T07:21:20.703Z,951.11
2016-07-14T07:22:20.704Z,951.07
2016-07-14T07:23:20.723Z,951.12
2016-07-14T07:24:20.721Z,951.09
2016-07-14T07:25:20.715Z,951.17
2016-07-14T07:26:20.667Z,951.12
2016-07-14T07:27:20.598Z,951.11
2016-07-14T07:28:20.666Z,951.11
2016-07-14T07:29:20.687Z,951.11
2016-07-14T07:30:20.579Z,951.12
2016-07-14T07:31:20.576Z,951.1
2016-07-14T07:32:20.569Z,951.15
2016-07-14T07:33:20.567Z,951.16
2016-07-14T07:34:20.660Z,951.13
2016-07-14T07:35:20.552Z,951.15
2016-07-14T07:36:20.621Z,951.17
2016-07-14T07:37:20.644Z,951.13
2016-07-14T07:38:20.533Z,951.18
2016-07-14T07:39:20.625Z,951.13
2016-07-14T07:40:20.715Z,951.13
2016-07-14T07:41:20.617Z,951.12
2016-07-14T07:42:20.616Z,951.17
2016-07-14T07:43:20.609Z,951.17
2016-07-14T07:44:20.608Z,951.15
2016-07-14T07:45:20.594Z,951.16
2016-07-14T07:46:20.591Z,951.12
2016-07-14T07:47:20.681Z,951.14
2016-07-14T07:48:20.587Z,951.13
2016-07-14T07:49:20.472Z,951.11
2016-07-14T07:50:20.466Z,951.16
2016-07-14T07:51:20.555Z,951.14
2016-07-14T07:52:20.555Z,951.11
2016-07-14T07:53:20.524Z,951.12
2016-07-14T07:54:20.443Z,951.15
2016-07-14T07:55:20.441Z,951.11
2016-07-14T07:56:20.433Z,951.07
2016-07-14T07:57:20.505Z,951.11
2016-07-14T07:58:20.422Z,951.14
2016-07-14T07:59:20.491Z,951.1
2016-07-14T08:00:20.485Z,951.09
2016-07-14T08:01:20.405Z,951.1
2016-07-14T08:02:20.399Z,951.13
2016-07-14T08:03:20.512Z,951.12
2016-07-14T08:04:20.491Z,951.07
2016-07-14T08:05:20.386Z,951.17
2016-07-14T08:06:20.378Z,951.16
2016-07-14T08:07:20.489Z,951.13
2016-07-14T08:08:20.437Z,951.14
2016-07-14T08:09:20.457Z,951.16
2016-07-14T08:10:20.446Z,951.16
2016-07-14T08:11:20.425Z,951.15
2016-07-14T08:12:20.344Z,951.17
2016-07-14T08:13:20.340Z,951.17
2016-07-14T08:14:20.443Z,951.18
2016-07-14T08:15:20.402Z,951.18
2016-07-14T08:16:20.326Z,951.24
2016-07-14T08:17:20.423Z,951.15
2016-07-14T08:18:20.311Z,951.2
2016-07-14T08:19:20.411Z,951.25
2016-07-14T08:20:20.298Z,951.23
2016-07-14T08:21:20.297Z,951.21
2016-07-14T08:22:20.385Z,951.26
2016-07-14T08:23:20.281Z,951.34
2016-07-14T08:24:20.281Z,951.29
2016-07-14T08:25:20.411Z,951.35
2016-07-14T08:26:20.307Z,951.32
2016-07-14T08:27:20.300Z,951.33
2016-07-14T08:28:20.335Z,951.35
2016-07-14T08:29:20.430Z,951.34
2016-07-14T08:30:20.326Z,951.37
2016-07-14T08:31:20.406Z,951.37
2016-07-14T08:32:20.344Z,951.32
2016-07-14T08:33:20.449Z,951.35
2016-07-14T08:34:20.349Z,951.38
2016-07-14T08:35:20.456Z,951.34
2016-07-14T08:36:20.332Z,951.41
2016-07-14T08:37:20.441Z,951.4
2016-07-14T08:38:20.439Z,951.44
2016-07-14T08:39:20.355Z,951.41
2016-07-14T08:40:20.391Z,951.52
2016-07-14T08:41:20.485Z,951.51
2016-07-14T08:42:20.377Z,951.57
2016-07-14T08:43:20.484Z,951.54
2016-07-14T08:44:20.384Z,951.51
2016-07-14T08:45:20.376Z,951.55
2016-07-14T08:46:20.392Z,951.57
2016-07-14T08:47:20.452Z,951.61
2016-07-14T08:48:20.638Z,951.67
2016-07-14T08:49:20.498Z,951.66
2016-07-14T08:50:20.470Z,951.73
2016-07-14T08:51:20.390Z,951.72
2016-07-14T08:52:20.419Z,951.69
2016-07-14T08:53:20.410Z,951.72
2016-07-14T08:54:20.406Z,951.7
2016-07-14T08:55:20.439Z,951.74
2016-07-14T08:56:20.431Z,951.78
2016-07-14T08:57:20.525Z,951.79
2016-07-14T08:58:20.461Z,951.76
2016-07-14T08:59:20.454Z,951.78
2016-07-14T09:00:20.548Z,951.82
2016-07-14T09:01:20.487Z,951.82
2016-07-14T09:02:20.549Z,951.81
2016-07-14T09:03:20.469Z,951.82
2016-07-14T09:04:20.561Z,951.87
2016-07-14T09:05:20.482Z,951.86
2016-07-14T09:06:20.478Z,951.84
2016-07-14T09:07:20.600Z,951.88
2016-07-14T09:08:20.591Z,951.88
2016-07-14T09:09:20.562Z,951.9
2016-07-14T09:10:20.623Z,951.91
2016-07-14T09:11:20.516Z,951.93
2016-07-14T09:12:20.759Z,951.91
2016-07-14T09:13:20.641Z,951.97
2016-07-14T09:14:20.722Z,951.97
2016-07-14T09:15:20.540Z,951.98
2016-07-14T09:16:20.558Z,952.01
2016-07-14T09:17:20.651Z,951.99
2016-07-14T09:18:20.642Z,951.97
2016-07-14T09:19:20.680Z,951.99
2016-07-14T09:20:20.673Z,952.02
2016-07-14T09:21:20.572Z,951.99
2016-07-14T09:22:20.701Z,952.02
2016-07-14T09:23:20.593Z,952.1
2016-07-14T09:24:20.583Z,952.1
2016-07-14T09:25:20.618Z,952.1
2016-07-14T09:26:20.614Z,952.1
2016-07-14T09:27:20.611Z,952.15
2016-07-14T09:28:20.648Z,952.13
2016-07-14T09:29:20.634Z,952.1
2016-07-14T09:30:20.700Z,952.15
2016-07-14T09:31:20.665Z,952.16
2016-07-14T09:32:20.735Z,952.14
2016-07-14T09:33:20.841Z,952.14
2016-07-14T09:34:20.749Z,952.14
2016-07-14T09:35:20.735Z,952.18
2016-07-14T09:36:20.659Z,952.16
2016-07-14T09:37:20.785Z,952.16
2016-07-14T09:38:20.782Z,952.23
2016-07-14T09:39:20.669Z,952.19
2016-07-14T09:40:20.793Z,952.26
2016-07-14T09:41:20.796Z,952.21
2016-07-14T09:42:20.779Z,952.23
2016-07-14T09:43:20.704Z,952.19
2016-07-14T09:44:20.768Z,952.2
2016-07-14T09:45:20.786Z,952.29
2016-07-14T09:46:20.796Z,952.29
2016-07-14T09:47:20.825Z,952.25
2016-07-14T09:48:20.816Z,952.27
2016-07-14T09:49:20.737Z,952.3
2016-07-14T09:50:20.798Z,952.32
2016-07-14T09:51:20.821Z,952.34
2016-07-14T09:52:20.839Z,952.35
2016-07-14T09:53:20.757Z,952.39
2016-07-14T09:54:20.851Z,952.37
2016-07-14T09:55:20.866Z,952.4
2016-07-14T09:56:20.764Z,952.47
2016-07-14T09:57:20.854Z,952.43
2016-07-14T09:58:20.876Z,952.47
2016-07-14T09:59:20.774Z,952.47
2016-07-14T10:00:20.768Z,952.49
2016-07-14T10:01:20.858Z,952.48
2016-07-14T10:02:20.885Z,952.55
2016-07-14T10:03:20.769Z,952.54
2016-07-14T10:04:20.808Z,952.54
2016-07-14T10:05:20.803Z,952.57
2016-07-14T10:06:20.898Z,952.57
2016-07-14T10:07:20.830Z,952.6
2016-07-14T10:08:20.826Z,952.63
2016-07-14T10:09:20.819Z,952.61
2016-07-14T10:10:20.836Z,952.64
2016-07-14T10:11:21.010Z,952.71
2016-07-14T10:12:20.823Z,952.69
2016-07-14T10:13:20.838Z,952.76
2016-07-14T10:14:20.902Z,952.76
2016-07-14T10:15:20.926Z,952.75
2016-07-14T10:16:20.935Z,952.75
2016-07-14T10:17:20.861Z,952.74
2016-07-14T10:18:20.855Z,952.72
2016-07-14T10:19:20.992Z,952.79
2016-07-14T10:20:20.986Z,952.79
2016-07-14T10:21:21.101Z,952.82
2016-07-14T10:22:21.007Z,952.87
2016-07-14T10:23:20.986Z,952.83
2016-07-14T10:24:20.912Z,952.84
2016-07-14T10:25:20.953Z,952.79
2016-07-14T10:26:21.098Z,952.83
2016-07-14T10:27:21.039Z,952.79
2016-07-14T10:28:21.053Z,952.82
2016-07-14T10:29:20.961Z,952.82
2016-07-14T10:30:20.944Z,952.89
2016-07-14T10:31:20.961Z,952.96
2016-07-14T10:32:21.195Z,952.88
2016-07-14T10:33:20.943Z,952.89
2016-07-14T10:34:21.042Z,952.86
2016-07-14T10:35:20.957Z,952.92
2016-07-14T10:36:21.031Z,952.87
2016-07-14T10:37:20.982Z,952.92
2016-07-14T10:38:21.046Z,952.88
2016-07-14T10:39:20.972Z,952.97
2016-07-14T10:40:21.093Z,952.95
2016-07-14T10:41:20.987Z,952.95
2016-07-14T10:42:21.051Z,952.98
2016-07-14T10:43:21.010Z,952.96
2016-07-14T10:44:21.103Z,952.99
2016-07-14T10:45:21.068Z,952.96
2016-07-14T10:46:21.143Z,953
2016-07-14T10:47:21.036Z,952.97
2016-07-14T10:48:21.130Z,953
2016-07-14T10:49:21.047Z,952.95
2016-07-14T10:50:21.113Z,952.99
2016-07-14T10:51:21.043Z,952.96
2016-07-14T10:52:21.080Z,952.98
2016-07-14T10:53:21.155Z,953.01
2016-07-14T10:54:21.070Z,953.06
2016-07-14T10:55:21.136Z,953.01
2016-07-14T10:56:21.067Z,953.05
2016-07-14T10:57:21.047Z,953.03
2016-07-14T10:58:21.238Z,953.07
2016-07-14T10:59:21.139Z,953.05
2016-07-14T11:00:21.098Z,953.12
2016-07-14T11:01:21.242Z,953.08
2016-07-14T11:02:21.116Z,953.1
2016-07-14T11:03:21.105Z,953.1
2016-07-14T11:04:21.070Z,953.09
2016-07-14T11:05:21.098Z,953.18
2016-07-14T11:06:21.094Z,953.15
2016-07-14T11:07:20.979Z,953.22
2016-07-14T11:08:21.051Z,953.18
2016-07-14T11:09:20.970Z,953.2
2016-07-14T11:10:21.027Z,953.21
2016-07-14T11:11:21.056Z,953.22
2016-07-14T11:12:21.044Z,953.21
2016-07-14T11:13:21.016Z,953.15
2016-07-14T11:14:20.933Z,953.23
2016-07-14T11:15:21.002Z,953.25
2016-07-14T11:16:20.994Z,953.23
2016-07-14T11:17:20.908Z,953.29
2016-07-14T11:18:20.979Z,953.26
2016-07-14T11:19:20.996Z,953.24
2016-07-14T11:20:20.986Z,953.3
2016-07-14T11:21:20.956Z,953.26
2016-07-14T11:22:20.983Z,953.26
2016-07-14T11:23:20.943Z,953.26
2016-07-14T11:24:20.934Z,953.27
2016-07-14T11:25:20.936Z,953.28
2016-07-14T11:26:20.920Z,953.34
2016-07-14T11:27:20.845Z,953.3
2016-07-14T11:28:20.937Z,953.29
2016-07-14T11:29:20.949Z,953.34
2016-07-14T11:30:20.828Z,953.31
2016-07-14T11:31:20.822Z,953.33
2016-07-14T11:32:20.882Z,953.35
2016-07-14T11:33:20.873Z,953.34
2016-07-14T11:34:20.912Z,953.38
2016-07-14T11:35:20.871Z,953.4
2016-07-14T11:36:20.890Z,953.37
2016-07-14T11:37:20.848Z,953.38
2016-07-14T11:38:20.779Z,953.38
2016-07-14T11:39:20.768Z,953.43
2016-07-14T11:40:20.949Z,953.47
2016-07-14T11:41:20.825Z,953.46
2016-07-14T11:42:20.821Z,953.42
2016-07-14T11:43:20.966Z,953.5
2016-07-14T11:44:20.843Z,953.49
2016-07-14T11:45:20.836Z,953.49
2016-07-14T11:46:20.820Z,953.48
2016-07-14T11:47:20.822Z,953.48
2016-07-14T11:48:20.808Z,953.46
2016-07-14T11:49:20.782Z,953.47
2016-07-14T11:50:20.773Z,953.44
2016-07-14T11:51:20.798Z,953.44
2016-07-14T11:52:20.760Z,953.48
2016-07-14T11:53:20.744Z,953.47
2016-07-14T11:54:20.745Z,953.52
2016-07-14T11:55:20.762Z,953.45
2016-07-14T11:56:20.730Z,953.51
2016-07-14T11:57:20.724Z,953.53
2016-07-14T11:58:20.720Z,953.54
2016-07-14T11:59:20.637Z,953.57
2016-07-14T12:00:20.726Z,953.57
2016-07-14T12:01:20.624Z,953.58
2016-07-14T12:02:20.628Z,953.59
2016-07-14T12:03:20.716Z,953.54
2016-07-14T12:04:20.618Z,953.66
2016-07-14T12:05:20.708Z,953.66
2016-07-14T12:06:20.696Z,953.65
2016-07-14T12:08:20.909Z,953.65
2016-07-14T12:10:20.668Z,953.67
2016-07-14T12:11:20.632Z,953.69
2016-07-14T12:12:20.655Z,953.72
2016-07-14T12:13:20.646Z,953.69
2016-07-14T12:14:20.564Z,953.68
2016-07-14T12:15:20.633Z,953.68
2016-07-14T12:16:20.537Z,953.7
2016-07-14T12:17:20.526Z,953.69
2016-07-14T12:18:20.516Z,953.69
2016-07-14T12:19:20.509Z,953.66
2016-07-14T12:20:20.502Z,953.69
2016-07-14T12:21:20.569Z,953.71
2016-07-14T12:22:22.351Z,953.71
2016-07-14T12:23:20.691Z,953.7
2016-07-14T12:24:20.657Z,953.73
2016-07-14T12:25:20.677Z,953.75
2016-07-14T12:26:20.465Z,953.74
2016-07-14T12:27:21.981Z,953.72
2016-07-14T12:28:20.904Z,953.76
2016-07-14T12:29:20.818Z,953.73
2016-07-14T12:30:20.449Z,953.75
2016-07-14T12:31:20.433Z,953.77
2016-07-14T12:32:20.450Z,953.77
2016-07-14T12:33:20.926Z,953.74
2016-07-14T12:34:20.415Z,953.77